Nur fliegen ist schöner ....

Willkommen beim Flugservice Bautzen GmbH

Wir sind eine nach europäischen Richtlinien zugelassene Flugschule und lizenziertes Luftfahrtunternehmen. Bei uns können sie nicht nur Rundflüge über die Oberlausitz oder Sachsen buchen, sondern in unserer Flugschule selber das Fliegen erlernen. Erfahrene Fluglehrer stehen Ihnen dabei zur Seite.

Wir bieten Ihnen außerdem spezielle Flüge zur Vermessung oder Fotoflüge für Luftbildaufnahmen an. In Zusammenarbeit mit dem Fallschirmsportclub Dresden und dem Cottbuser Fallschirmsportclub setzen wir am Flugplatz Bautzen und Neuhausen Fallschirmspringer ab.
Schauen Sie sich in Ruhe bei uns um und wenn Sie Fragen haben oder weitere Informationen benötigen, scheuen Sie sich nicht Kontakt mit uns aufzunehmen.

Gutscheine für Rundflüge und Tandemsprünge können Sie ganz leicht auch online in unserem Shop erwerben.

Terminkalender

Letzter Monat April 2021 Nächster Monat
Mo Di Mi Do Fr Sa So
week 13 1 2 3 4
week 14 5 6 7 8 9 10 11
week 15 12 13 14 15 16 17 18
week 16 19 20 21 22 23 24 25
week 17 26 27 28 29 30

Flugwetterinfo

[Quelle: ADDS]
METAR
EDDC 120020Z 29007KT 250V320 5000 -DZ BR BKN005 04/03 Q1016 =
EDDC 112300Z 1200/1224 31009KT 9999 BKN010 TEMPO 1200/1214 4500 -RA BKN008 PROB30 TEMPO 1204/1212 32015G25KT 2500 RASN BKN004 BECMG 1210/1212 SCT025 BECMG 1216/1218 25005KT
TAF
EDDC 112300Z 1200/1224 31009KT 9999 BKN010 TEMPO 1200/1214 4500 -RA BKN008 PROB30 TEMPO 1204/1212 32015G25KT 2500 RASN BKN004 BECMG 1210/1212 SCT025 BECMG 1216/1218 25005KT =
SR / SS: 04:12 / 17:52 UTC (EDAB Flugplatz Bautzen 2021-04-12)

Öffnungszeiten

des Flugplatzes Bautzen erfahren Sie hier:

flugplatz bautzen logo
Flugservice Bautzen GmbH, Kornmarkt 34, 02625 Bautzen  Telefon: +49 (3591) 211105, Telefax: +49 (3591) 274512, E-Mail:  flugservice(at)fsbautzen.de